Hauptseite
METAR-TAF:

METAR-TAF

Flughäfen :

Maastricht Aachen, Niederlande

Maastricht Aachen Airport

Breite: 50-55N, Länge: 005-47E, Höhe: 114 m

Beobachtung

Neuester Wetterbericht von vor 36 Minuten, um 11:25 UTC
Wind 5 kt aus unterschiedlichen Richtungen
Temperatur 19°C
Luftfeuchtigkeit 60%
Luftdruck 1023 hPa
Sichtweite 10 km oder mehr
Leicht bewölkt in der Höhe von 3500 ft

METAR: EHBK 211125Z AUTO VRB05KT 9999 FEW035 19/11 Q1023 NOSIG

Zeit: 14:01 (12:01 UTC)

Prognose

Neuester Wetterbericht von vor 57 Minuten, um 11:04 UTC
Gültige Prognose vom 21 um 12 UTC bis 22 um 18 UTC
Wind 5 kt aus Süd/Südwest
Sichtweite 10 km oder mehr
Aufgelockert bewölkt in der Höhe von 4000 ft

TAF: EHBK 211104Z 2112/2218 20005KT 9999 SCT040

Wetterbeobachtungen und Prognosen von mehr als 4000 Flughäfen (METAR und TAF Bericht).

Die verfügbaren Stationen werden durch gelbe und rote Markierungen auf der Karte dargestellt.

Führen Sie die Maus auf sie, um den Namen der Station zu sehen.

Darauf klicken, um die Beobachtung von Wetterbeobachtungen und Prognosen zu sehen.

Um die Karte zu ändern : klicken Sie auf den grünen Tasten mit einem schwarzen Kreuz Zum Vergrößern, auf den grünen Button mit einem Gedankenstrich zu verkleinern, oder auf die grünen Pfeile für benachbarte Karten.


METAR-TAF: